Time;durP1;ratioP1;P1;durP2;ratioP2;P2;SDS_P1;SDS_P2;PMS_P1;PMS_P2;Temp;Humidity;BMP_temperature;BMP_pressure;BME280_temperature;BME280_humidity;BME280_pressure;Samples;Min_cycle;Max_cycle;Signal;HPM_P1;HPM_P2
2023/06/23 06:30:51;;;;;;;50.70;29.30;;;;;;;17.19;81.44;97055.53;2083224;28;20571;-59
2023/06/23 06:33:00;;;;;;;49.80;28.35;;;;;;;17.59;81.18;97060.78;2086318;28;20544;-59
2023/06/23 06:34:03;;;;;;;48.80;29.00;;;;;;;17.81;80.26;97061.16;2080831;28;20529;-59
2023/06/23 06:35:10;;;;;;;43.22;27.48;;;;;;;18.04;78.79;97063.13;2081440;28;20243;-59
2023/06/23 06:36:14;;;;;;;44.80;28.90;;;;;;;18.05;78.13;97050.75;2082956;28;20201;-59
2023/06/23 06:37:18;;;;;;;39.33;25.45;;;;;;;18.00;77.71;97056.34;2084129;28;20201;-59
2023/06/23 06:38:22;;;;;;;38.25;23.98;;;;;;;18.09;77.23;97045.16;2082463;28;20228;-59
2023/06/23 06:39:25;;;;;;;38.25;24.55;;;;;;;18.07;77.09;97044.41;2082797;28;20197;-59
2023/06/23 06:40:28;;;;;;;46.03;25.45;;;;;;;18.25;76.47;97054.66;2081730;28;20193;-59
2023/06/23 06:42:49;;;;;;;34.22;23.70;;;;;;;18.26;77.07;97059.84;2086425;28;20603;-59
2023/06/23 07:00:32;;;;;;;46.13;26.40;;;;;;;17.81;78.33;97098.13;2083710;27;20545;-59
2023/06/23 07:02:43;;;;;;;43.65;26.30;;;;;;;18.04;77.76;97094.84;2090418;27;20565;-59
2023/06/23 07:03:45;;;;;;;45.17;26.67;;;;;;;18.21;77.35;97093.66;2081399;28;20244;-58
2023/06/23 07:21:43;;;;;;;44.92;23.10;;;;;;;18.14;76.18;97116.19;2082845;28;20563;-58
2023/06/23 07:22:45;;;;;;;34.95;22.23;;;;;;;18.33;75.29;97114.94;2076754;28;20255;-58
2023/06/23 07:23:47;;;;;;;37.17;21.85;;;;;;;18.40;74.87;97119.69;2071235;28;20738;-59
2023/06/23 07:26:02;;;;;;;34.47;20.77;;;;;;;18.52;75.05;97115.34;2100392;27;20565;-58
2023/06/23 07:27:05;;;;;;;32.25;21.48;;;;;;;18.34;74.52;97121.91;2096610;28;20202;-59
2023/06/23 07:28:06;;;;;;;38.75;22.02;;;;;;;18.23;75.07;97125.28;2086044;28;20221;-59
2023/06/23 07:29:08;;;;;;;36.80;21.25;;;;;;;18.20;74.92;97131.63;2080505;28;20204;-58
2023/06/23 07:30:13;;;;;;;34.35;20.67;;;;;;;18.42;74.64;97122.22;2082601;28;20291;-59
2023/06/23 07:31:15;;;;;;;37.97;20.52;;;;;;;18.79;73.64;97132.03;2078434;28;20193;-59
2023/06/23 07:32:16;;;;;;;29.15;19.40;;;;;;;18.95;71.70;97114.16;2093852;28;20413;-59
2023/06/23 07:33:18;;;;;;;30.08;20.40;;;;;;;18.84;71.82;97127.25;2100467;28;20628;-59
2023/06/23 07:34:19;;;;;;;29.20;19.98;;;;;;;19.03;72.00;97130.34;2086400;28;20232;-58
2023/06/23 07:35:20;;;;;;;32.60;20.85;;;;;;;19.12;71.73;97128.81;2088701;28;20551;-59
2023/06/23 07:36:22;;;;;;;33.42;20.77;;;;;;;19.16;71.08;97126.81;2089135;28;20230;-59
2023/06/23 07:37:23;;;;;;;38.45;20.20;;;;;;;19.35;70.89;97134.25;2085444;28;20200;-59
2023/06/23 07:38:25;;;;;;;31.00;19.08;;;;;;;19.37;71.09;97132.34;2087896;28;20224;-59
2023/06/23 07:39:26;;;;;;;39.85;20.50;;;;;;;19.38;70.53;97131.41;2090489;28;20208;-59
2023/06/23 07:40:28;;;;;;;39.20;19.40;;;;;;;19.61;70.44;97142.13;2088380;28;20326;-59
2023/06/23 07:41:29;;;;;;;32.92;19.52;;;;;;;19.48;69.82;97131.59;2089201;28;20199;-59
2023/06/23 07:42:31;;;;;;;31.15;18.55;;;;;;;19.62;70.04;97130.53;2087390;28;20199;-59
2023/06/23 07:43:32;;;;;;;29.80;19.08;;;;;;;19.34;69.76;97143.19;2086641;28;20232;-59
2023/06/23 07:44:36;;;;;;;32.90;19.40;;;;;;;19.20;69.69;97142.34;2087160;28;20331;-59
2023/06/23 07:45:37;;;;;;;28.95;18.92;;;;;;;19.23;69.95;97142.13;2089839;28;20311;-59
2023/06/23 07:46:38;;;;;;;29.27;17.85;;;;;;;19.48;69.46;97143.00;2090365;28;20245;-58
2023/06/23 07:47:40;;;;;;;26.17;18.08;;;;;;;19.44;69.63;97132.75;2088206;28;20200;-58
2023/06/23 07:48:43;;;;;;;28.77;18.35;;;;;;;19.57;68.98;97141.50;2088441;28;20200;-59
2023/06/23 07:49:44;;;;;;;29.60;18.83;;;;;;;19.47;69.00;97136.00;2087103;28;20723;-59
2023/06/23 07:50:47;;;;;;;24.98;17.02;;;;;;;19.17;69.78;97144.38;2086312;28;20232;-59
2023/06/23 07:51:48;;;;;;;33.70;19.33;;;;;;;19.53;69.92;97147.97;2086282;28;20201;-59
2023/06/23 07:52:53;;;;;;;26.92;17.35;;;;;;;19.97;68.24;97145.66;2085978;28;20627;-59
2023/06/23 07:53:55;;;;;;;24.30;16.33;;;;;;;19.65;68.99;97149.72;2086295;28;20197;-58
2023/06/23 07:55:08;;;;;;;23.17;15.73;;;;;;;19.86;68.93;97151.78;2091533;28;20227;-59
2023/06/23 07:56:12;;;;;;;28.95;18.00;;;;;;;20.12;68.38;97147.16;2091042;28;20639;-59
2023/06/23 07:57:13;;;;;;;26.00;17.40;;;;;;;20.41;67.93;97153.88;2089519;28;20241;-59
2023/06/23 07:58:15;;;;;;;34.60;17.60;;;;;;;20.41;66.74;97161.81;2090097;28;20212;-59
2023/06/23 07:59:16;;;;;;;27.92;16.30;;;;;;;20.10;66.58;97158.84;2086333;28;20748;-59
2023/06/23 08:00:18;;;;;;;25.90;15.38;;;;;;;20.04;67.02;97155.69;2083244;28;20304;-59
2023/06/23 08:01:19;;;;;;;24.85;17.00;;;;;;;19.60;67.68;97157.16;2082857;28;20741;-59
2023/06/23 08:02:21;;;;;;;26.73;15.95;;;;;;;19.30;69.06;97178.75;2083999;28;20843;-59
2023/06/23 08:03:22;;;;;;;26.23;16.15;;;;;;;19.47;69.12;97170.44;2085592;28;20228;-58
2023/06/23 08:04:24;;;;;;;24.63;15.75;;;;;;;20.11;68.23;97168.47;2088870;28;20197;-59
2023/06/23 08:05:26;;;;;;;25.13;17.33;;;;;;;19.93;68.43;97173.38;2089977;28;20224;-59
2023/06/23 08:06:28;;;;;;;23.45;15.68;;;;;;;19.75;68.08;97173.72;2089114;28;20196;-59
2023/06/23 08:07:29;;;;;;;31.02;16.23;;;;;;;19.63;68.46;97170.19;2086858;28;20224;-59
2023/06/23 08:08:32;;;;;;;26.38;16.45;;;;;;;19.59;68.51;97179.28;2087768;28;20228;-59
2023/06/23 08:09:34;;;;;;;26.77;17.20;;;;;;;19.34;68.92;97185.53;2087580;28;20574;-59
2023/06/23 08:10:36;;;;;;;25.20;16.23;;;;;;;19.14;69.70;97190.44;2085712;28;20235;-58
2023/06/23 08:11:38;;;;;;;24.25;15.27;;;;;;;19.53;69.38;97188.53;2088999;28;20696;-59
2023/06/23 08:12:39;;;;;;;29.73;17.17;;;;;;;19.24;69.43;97188.00;2083943;28;20200;-59
2023/06/23 08:13:41;;;;;;;25.88;15.35;;;;;;;19.39;69.96;97194.00;2088959;28;20249;-58
2023/06/23 08:14:42;;;;;;;26.38;15.20;;;;;;;19.84;69.00;97194.25;2087760;28;20204;-59
2023/06/23 08:15:43;;;;;;;25.10;16.60;;;;;;;19.76;68.73;97199.28;2086779;28;20189;-59
2023/06/23 08:16:46;;;;;;;24.08;15.05;;;;;;;19.88;68.66;97192.25;2085802;28;20193;-59
2023/06/23 08:17:48;;;;;;;25.83;15.80;;;;;;;19.71;68.68;97196.94;2084680;28;20204;-59
2023/06/23 08:18:52;;;;;;;30.80;14.35;;;;;;;19.53;68.56;97193.00;2089194;28;20253;-59
2023/06/23 08:19:53;;;;;;;26.75;14.15;;;;;;;19.71;68.63;97194.28;2090127;28;20730;-59
2023/06/23 08:20:55;;;;;;;30.20;15.20;;;;;;;19.68;68.65;97196.31;2084905;28;20280;-59
2023/06/23 08:25:40;;;;;;;22.63;14.95;;;;;;;19.13;69.65;97201.16;2083149;28;20573;-60
2023/06/23 08:26:42;;;;;;;22.20;14.75;;;;;;;19.25;69.82;97209.06;2082847;28;20750;-61
2023/06/23 08:27:44;;;;;;;22.00;14.95;;;;;;;19.32;69.98;97208.63;2081248;28;20250;-61
2023/06/23 08:28:45;;;;;;;21.48;14.30;;;;;;;19.41;70.18;97214.13;2074038;28;20641;-61
2023/06/23 08:29:47;;;;;;;25.85;15.55;;;;;;;19.50;69.77;97211.75;2074535;28;20771;-60
2023/06/23 08:30:48;;;;;;;27.35;14.77;;;;;;;19.39;69.84;97213.38;2070800;28;20248;-61
2023/06/23 08:34:44;;;;;;;22.17;14.68;;;;;;;20.04;68.81;97207.88;2085160;28;20568;-58
2023/06/23 08:35:46;;;;;;;20.50;14.63;;;;;;;20.32;67.37;97203.97;2081685;28;20868;-59
2023/06/23 08:36:47;;;;;;;26.55;15.45;;;;;;;20.01;67.77;97213.38;2079105;28;20201;-59
2023/06/23 08:37:49;;;;;;;19.45;13.43;;;;;;;19.86;68.08;97215.38;2074396;28;20190;-59
2023/06/23 08:40:01;;;;;;;29.80;14.52;;;;;;;19.64;68.67;97222.22;2100196;27;20570;-58
2023/06/23 08:41:05;;;;;;;22.90;13.35;;;;;;;19.69;68.80;97214.78;2096275;28;20217;-59
2023/06/23 08:42:07;;;;;;;22.98;14.52;;;;;;;19.84;68.88;97219.94;2099288;28;20195;-58
2023/06/23 08:44:22;;;;;;;22.27;14.40;;;;;;;19.40;69.22;97223.00;2100849;27;20577;-58
2023/06/23 08:45:25;;;;;;;19.48;13.45;;;;;;;19.88;67.84;97214.31;2095056;28;20202;-59
2023/06/23 08:46:31;;;;;;;19.55;12.90;;;;;;;20.28;66.70;97217.56;2097623;28;20191;-59
2023/06/23 08:47:51;;;;;;;23.58;15.00;;;;;;;20.20;66.73;97229.63;2091267;28;20322;-58
2023/06/23 08:48:56;;;;;;;21.35;14.07;;;;;;;20.56;65.51;97219.00;2078524;28;20255;-59
2023/06/23 08:49:59;;;;;;;18.05;13.05;;;;;;;20.75;65.10;97214.94;2079354;28;20701;-59
2023/06/23 08:51:02;;;;;;;19.25;13.30;;;;;;;21.34;63.89;97227.16;2095394;28;20215;-60
2023/06/23 08:52:04;;;;;;;21.48;12.40;;;;;;;21.26;63.43;97218.97;2097204;28;20855;-60
2023/06/23 08:53:05;;;;;;;18.75;11.75;;;;;;;21.13;63.87;97216.47;2086865;28;20219;-60
2023/06/23 08:54:08;;;;;;;20.88;12.95;;;;;;;20.80;64.85;97220.78;2089634;28;20197;-60
2023/06/23 08:55:10;;;;;;;23.17;15.02;;;;;;;20.42;65.54;97213.88;2092798;28;20200;-60
2023/06/23 08:56:13;;;;;;;18.30;13.25;;;;;;;20.49;65.75;97220.41;2088019;28;20262;-60
2023/06/23 08:57:15;;;;;;;17.67;12.70;;;;;;;20.53;64.95;97224.53;2086762;28;20548;-60
2023/06/23 08:58:18;;;;;;;20.05;12.98;;;;;;;20.63;64.38;97219.38;2084053;28;20216;-60
2023/06/23 08:59:20;;;;;;;20.35;12.93;;;;;;;20.97;64.11;97217.63;2084634;28;20189;-59
2023/06/23 09:00:21;;;;;;;23.70;13.18;;;;;;;20.80;64.02;97220.78;2083330;28;20201;-60
2023/06/23 09:01:23;;;;;;;20.27;13.45;;;;;;;20.55;65.02;97226.09;2085765;28;20563;-60
2023/06/23 09:02:24;;;;;;;20.35;12.30;;;;;;;20.64;65.04;97232.50;2088031;28;20193;-60
2023/06/23 09:03:26;;;;;;;21.42;13.25;;;;;;;20.49;65.53;97229.25;2085572;28;20215;-60
2023/06/23 09:04:27;;;;;;;15.10;10.95;;;;;;;20.45;65.68;97229.59;2086037;28;20717;-60
2023/06/23 09:05:29;;;;;;;17.25;12.30;;;;;;;20.37;65.84;97232.81;2089264;28;20242;-60
2023/06/23 09:06:31;;;;;;;18.50;12.18;;;;;;;20.63;65.03;97235.28;2088131;28;20296;-59
2023/06/23 09:07:32;;;;;;;22.88;12.55;;;;;;;20.96;63.95;97229.25;2089995;28;20200;-60
2023/06/23 09:08:34;;;;;;;20.98;12.52;;;;;;;21.11;63.00;97236.97;2089572;28;20258;-60
2023/06/23 09:09:35;;;;;;;18.63;12.68;;;;;;;21.24;63.28;97235.00;2085242;28;20204;-60
2023/06/23 09:10:37;;;;;;;20.27;12.75;;;;;;;21.48;63.55;97229.59;2085109;28;20196;-60
2023/06/23 09:11:38;;;;;;;16.25;11.48;;;;;;;21.65;63.03;97236.22;2087540;28;20558;-60
2023/06/23 09:12:57;;;;;;;22.83;12.20;;;;;;;21.43;62.65;97237.06;2090692;28;20844;-60
2023/06/23 09:14:00;;;;;;;18.58;12.35;;;;;;;21.53;61.35;97242.50;2089802;28;20196;-60
2023/06/23 09:15:02;;;;;;;20.70;11.95;;;;;;;21.20;61.60;97244.19;2084366;28;20235;-60
2023/06/23 09:16:04;;;;;;;19.98;13.23;;;;;;;20.99;62.73;97244.91;2085016;28;20207;-60
2023/06/23 09:17:08;;;;;;;19.08;11.50;;;;;;;20.76;63.43;97241.41;2086389;28;20200;-60
2023/06/23 09:18:12;;;;;;;23.15;13.18;;;;;;;20.39;64.43;97244.13;2085913;28;20254;-60
2023/06/23 09:19:15;;;;;;;20.30;13.07;;;;;;;20.48;64.79;97239.94;2085419;28;20207;-60
2023/06/23 09:20:19;;;;;;;17.67;11.85;;;;;;;20.69;63.60;97251.56;2085381;28;20197;-60
2023/06/23 09:21:22;;;;;;;21.58;11.82;;;;;;;20.90;63.97;97248.28;2086882;28;20311;-60
2023/06/23 09:22:25;;;;;;;19.63;12.05;;;;;;;21.36;63.26;97255.31;2090145;28;20227;-60
2023/06/23 09:23:26;;;;;;;15.00;11.07;;;;;;;21.96;62.06;97249.69;2089115;28;20560;-60
2023/06/23 09:24:43;;;;;;;15.65;11.27;;;;;;;21.86;61.68;97251.41;2091639;28;20217;-59
2023/06/23 09:25:50;;;;;;;20.05;12.93;;;;;;;21.71;61.89;97248.16;2090464;28;20838;-60
2023/06/23 09:26:54;;;;;;;19.13;11.43;;;;;;;21.64;61.80;97249.66;2089381;28;20197;-60
2023/06/23 09:27:56;;;;;;;16.38;11.70;;;;;;;21.94;61.43;97254.28;2090774;28;20670;-60
2023/06/23 09:29:26;;;;;;;16.52;12.45;;;;;;;21.75;61.85;97254.09;2093473;28;20203;-60
2023/06/23 09:30:35;;;;;;;25.30;12.07;;;;;;;21.78;61.21;97257.34;2078021;28;20283;-59
2023/06/23 09:31:40;;;;;;;21.60;10.60;;;;;;;21.94;60.85;97243.66;2086340;28;20918;-60
2023/06/23 09:32:44;;;;;;;19.13;11.55;;;;;;;21.93;61.08;97244.63;2086723;28;20677;-59
2023/06/23 09:33:52;;;;;;;19.27;10.80;;;;;;;22.08;60.37;97255.81;2088778;28;20241;-59
2023/06/23 09:34:57;;;;;;;20.23;12.02;;;;;;;22.10;60.59;97259.19;2088833;28;20438;-59
2023/06/23 09:36:04;;;;;;;16.40;11.07;;;;;;;21.95;60.47;97250.69;2088080;28;20742;-59
2023/06/23 09:37:13;;;;;;;15.95;11.15;;;;;;;21.89;60.75;97258.28;2087389;28;20196;-59
2023/06/23 09:38:23;;;;;;;21.63;12.07;;;;;;;22.00;61.16;97267.09;2089043;28;20255;-59
2023/06/23 09:39:25;;;;;;;19.23;12.63;;;;;;;21.82;61.35;97256.13;2088960;28;20695;-59
2023/06/23 09:40:27;;;;;;;18.85;12.75;;;;;;;21.47;62.11;97249.16;2088297;28;20242;-59
2023/06/23 09:41:32;;;;;;;23.77;12.50;;;;;;;21.77;61.84;97262.78;2086526;28;20201;-59
2023/06/23 09:42:57;;;;;;;15.60;10.82;;;;;;;21.84;61.43;97258.69;2087185;28;20762;-59
2023/06/23 09:43:59;;;;;;;14.52;11.05;;;;;;;21.80;61.65;97260.72;2085479;28;20315;-59
2023/06/23 09:45:00;;;;;;;23.00;13.10;;;;;;;21.42;62.02;97256.66;2087180;28;20592;-59
2023/06/23 09:46:06;;;;;;;19.35;12.63;;;;;;;20.79;63.32;97257.06;2087879;28;20207;-60
2023/06/23 09:47:14;;;;;;;16.67;12.38;;;;;;;20.91;63.74;97260.56;2087472;28;20189;-60
2023/06/23 09:48:17;;;;;;;20.20;12.45;;;;;;;21.27;63.48;97268.44;2089945;28;20234;-60
2023/06/23 09:49:19;;;;;;;27.33;12.15;;;;;;;21.22;62.95;97258.22;2085582;28;20184;-59
2023/06/23 09:50:22;;;;;;;25.05;11.73;;;;;;;21.31;63.53;97262.78;2089115;28;20197;-60
2023/06/23 09:51:24;;;;;;;16.80;11.60;;;;;;;21.06;62.33;97271.00;2089456;28;20686;-59
2023/06/23 09:52:27;;;;;;;17.20;12.07;;;;;;;21.69;61.29;97256.28;2090680;28;20345;-60
2023/06/23 09:53:41;;;;;;;14.95;10.35;;;;;;;21.94;60.65;97258.75;2086528;28;20235;-60
2023/06/23 09:54:43;;;;;;;16.95;10.23;;;;;;;22.22;60.08;97262.69;2086578;28;20207;-59
2023/06/23 09:55:44;;;;;;;17.88;11.15;;;;;;;22.45;59.18;97257.28;2080869;28;20196;-59
2023/06/23 09:56:46;;;;;;;13.93;10.07;;;;;;;22.88;58.33;97251.00;2085636;28;20655;-59
2023/06/23 09:57:47;;;;;;;14.95;9.15;;;;;;;23.14;58.33;97261.22;2084488;28;20193;-59
2023/06/23 09:58:49;;;;;;;16.08;10.18;;;;;;;22.59;57.30;97259.63;2079330;28;20236;-60
2023/06/23 09:59:52;;;;;;;17.75;9.85;;;;;;;22.53;57.29;97265.47;2080974;28;20652;-60
2023/06/23 10:01:05;;;;;;;15.30;10.40;;;;;;;22.23;58.15;97261.69;2079900;28;20253;-60
2023/06/23 10:02:08;;;;;;;15.40;10.82;;;;;;;22.14;57.95;97258.00;2081954;28;20246;-59
2023/06/23 10:03:10;;;;;;;17.35;10.07;;;;;;;22.18;57.38;97259.41;2081067;28;20221;-60
2023/06/23 10:04:12;;;;;;;12.90;9.30;;;;;;;22.35;57.57;97257.19;2082904;28;20201;-60
2023/06/23 10:05:15;;;;;;;16.30;10.35;;;;;;;22.68;57.77;97258.00;2083068;28;20208;-60
2023/06/23 10:06:21;;;;;;;14.63;9.50;;;;;;;22.83;57.17;97247.88;2083439;28;20548;-60
2023/06/23 10:07:25;;;;;;;20.30;10.88;;;;;;;22.24;59.12;97252.72;2080882;28;20563;-60
2023/06/23 10:08:26;;;;;;;14.65;9.45;;;;;;;21.85;60.38;97263.00;2081211;28;20343;-60
2023/06/23 10:09:28;;;;;;;17.45;11.77;;;;;;;21.45;60.60;97259.03;2081187;28;20200;-60
2023/06/23 10:10:30;;;;;;;20.95;10.50;;;;;;;21.29;60.65;97262.09;2083572;28;20193;-60
2023/06/23 10:11:38;;;;;;;16.58;9.80;;;;;;;20.88;61.17;97258.16;2081249;28;20255;-60
2023/06/23 10:12:41;;;;;;;19.35;10.88;;;;;;;21.03;61.23;97259.63;2081662;28;20283;-59
2023/06/23 10:13:46;;;;;;;19.25;10.40;;;;;;;21.26;61.32;97264.13;2080673;28;20197;-60
2023/06/23 10:14:49;;;;;;;14.85;10.57;;;;;;;21.00;61.91;97259.03;2083336;28;20668;-60
2023/06/23 10:15:51;;;;;;;15.90;10.65;;;;;;;21.39;61.51;97264.00;2081427;28;20204;-60
2023/06/23 10:16:57;;;;;;;15.95;10.15;;;;;;;22.02;59.56;97270.44;2079666;28;20258;-60
2023/06/23 10:17:59;;;;;;;15.68;9.80;;;;;;;22.33;59.17;97264.44;2080313;28;20221;-60
2023/06/23 10:19:01;;;;;;;19.73;10.27;;;;;;;22.51;59.41;97259.41;2081550;28;20201;-60
2023/06/23 10:20:04;;;;;;;14.43;9.38;;;;;;;22.55;59.03;97265.31;2080669;28;20781;-60
2023/06/23 10:21:07;;;;;;;17.00;10.65;;;;;;;22.50;58.73;97263.06;2080810;28;20408;-60
2023/06/23 10:22:09;;;;;;;15.07;8.80;;;;;;;23.11;57.86;97262.34;2080380;28;20333;-60
2023/06/23 10:23:12;;;;;;;12.77;8.40;;;;;;;23.50;56.77;97258.19;2081916;28;20750;-60
2023/06/23 10:24:18;;;;;;;11.27;7.82;;;;;;;23.99;55.37;97263.69;2082185;28;20667;-60
2023/06/23 10:25:20;;;;;;;11.25;7.85;;;;;;;23.74;55.34;97268.50;2080926;28;20683;-60
2023/06/23 10:26:23;;;;;;;17.45;9.85;;;;;;;23.17;55.46;97268.97;2080047;28;20189;-60
2023/06/23 10:27:28;;;;;;;14.05;9.57;;;;;;;23.09;55.15;97260.78;2079041;28;20280;-60
2023/06/23 10:28:30;;;;;;;14.80;9.25;;;;;;;22.67;56.50;97267.78;2078631;28;20316;-60
2023/06/23 10:29:38;;;;;;;17.13;8.40;;;;;;;22.71;57.54;97262.22;2080040;28;20659;-59
2023/06/23 10:30:43;;;;;;;16.52;8.63;;;;;;;22.70;58.24;97265.88;2082544;28;20780;-60
2023/06/23 10:31:47;;;;;;;15.85;10.18;;;;;;;22.07;58.14;97266.56;2083902;28;20197;-60
2023/06/23 10:32:54;;;;;;;19.02;9.63;;;;;;;21.74;59.65;97261.22;2081996;28;20192;-60
2023/06/23 10:33:59;;;;;;;14.80;9.10;;;;;;;21.51;60.54;97257.72;2085020;28;20254;-59
2023/06/23 10:35:07;;;;;;;13.43;8.10;;;;;;;21.53;60.68;97258.44;2084732;28;20284;-60
2023/06/23 10:36:11;;;;;;;15.25;8.18;;;;;;;21.63;60.41;97254.09;2082074;28;20799;-59
2023/06/23 10:37:15;;;;;;;11.73;8.25;;;;;;;22.00;59.76;97268.88;2080653;28;20193;-60
2023/06/23 10:38:22;;;;;;;11.45;7.55;;;;;;;22.16;58.89;97264.00;2078732;28;20224;-60
2023/06/23 10:39:31;;;;;;;16.20;8.75;;;;;;;22.62;57.45;97259.34;2082416;28;20207;-59
2023/06/23 10:40:38;;;;;;;16.33;8.25;;;;;;;23.23;56.02;97259.63;2082947;28;20199;-60
2023/06/23 10:41:44;;;;;;;11.90;7.50;;;;;;;23.24;54.83;97256.81;2082435;28;20201;-61
2023/06/23 10:42:49;;;;;;;10.07;7.13;;;;;;;23.57;54.09;97249.50;2081534;28;20204;-59
2023/06/23 10:43:54;;;;;;;14.13;6.45;;;;;;;23.61;54.84;97253.59;2084451;28;20805;-59
2023/06/23 10:44:58;;;;;;;11.20;6.93;;;;;;;23.63;55.20;97256.97;2082979;28;20212;-59
2023/06/23 10:46:00;;;;;;;12.13;8.05;;;;;;;23.29;55.20;97245.78;2083588;28;20242;-59
2023/06/23 10:47:01;;;;;;;13.65;7.45;;;;;;;23.06;55.61;97256.56;2083608;28;20200;-59
2023/06/23 10:48:03;;;;;;;13.00;7.60;;;;;;;22.78;56.92;97255.44;2080754;28;20220;-59
2023/06/23 10:49:07;;;;;;;11.10;7.82;;;;;;;22.43;57.79;97261.88;2081410;28;20209;-59
2023/06/23 10:50:10;;;;;;;10.85;7.55;;;;;;;22.51;57.71;97259.41;2081222;28;20301;-59
2023/06/23 10:51:13;;;;;;;10.50;7.50;;;;;;;22.73;57.96;97255.81;2081115;28;20334;-59
2023/06/23 10:52:15;;;;;;;12.52;7.15;;;;;;;22.66;57.84;97251.97;2082621;28;20567;-59
2023/06/23 10:53:18;;;;;;;10.23;7.43;;;;;;;22.57;57.49;97256.25;2096365;28;20344;-59
2023/06/23 10:54:27;;;;;;;11.55;7.53;;;;;;;22.44;57.11;97256.44;2093603;28;20196;-59
2023/06/23 10:55:38;;;;;;;10.13;6.55;;;;;;;22.12;57.06;97259.09;2078074;28;20781;-59
2023/06/23 10:56:52;;;;;;;12.88;7.35;;;;;;;22.14;57.40;97263.31;2079978;28;20808;-59
2023/06/23 10:58:14;;;;;;;12.10;7.50;;;;;;;21.63;57.72;97264.72;2077574;28;20197;-60
2023/06/23 10:59:21;;;;;;;12.02;7.20;;;;;;;21.43;58.64;97258.31;2076874;28;20204;-59
2023/06/23 11:00:31;;;;;;;13.93;7.30;;;;;;;21.97;58.26;97267.31;2080337;28;20806;-59
2023/06/23 11:02:01;;;;;;;9.57;6.35;;;;;;;22.23;58.27;97266.16;2080712;28;20266;-59
2023/06/23 11:03:08;;;;;;;9.02;6.75;;;;;;;22.48;57.29;97273.00;2082873;28;20216;-59
2023/06/23 11:04:25;;;;;;;10.80;6.93;;;;;;;22.86;56.74;97278.72;2081658;28;20209;-59
2023/06/23 11:05:27;;;;;;;13.57;7.40;;;;;;;23.00;56.25;97267.75;2082077;28;20239;-59
2023/06/23 11:06:35;;;;;;;10.38;7.18;;;;;;;23.19;55.70;97271.53;2080280;28;20194;-59
2023/06/23 11:08:00;;;;;;;13.65;8.18;;;;;;;23.74;54.38;97268.50;2082000;28;20196;-59
2023/06/23 11:09:02;;;;;;;17.17;6.93;;;;;;;24.04;54.32;97264.94;2078568;28;20247;-59
2023/06/23 11:10:05;;;;;;;9.80;6.45;;;;;;;23.95;54.73;97268.44;2079658;28;20197;-59
2023/06/23 11:11:09;;;;;;;10.13;6.68;;;;;;;23.36;55.47;97283.38;2079848;28;20209;-60
2023/06/23 11:12:39;;;;;;;10.27;6.80;;;;;;;22.73;55.12;97273.56;2077866;28;20209;-59
2023/06/23 11:25:52;;;;;;;10.38;7.15;;;;;;;21.13;59.60;97277.53;2094773;28;20585;-59
2023/06/23 11:27:00;;;;;;;10.88;6.65;;;;;;;21.11;58.91;97282.94;2090295;28;20262;-59
2023/06/23 11:28:30;;;;;;;10.90;7.13;;;;;;;22.26;57.47;97284.50;2083556;28;20283;-59
2023/06/23 11:29:32;;;;;;;13.95;6.65;;;;;;;22.96;55.76;97284.97;2074824;28;20288;-59
2023/06/23 11:30:53;;;;;;;9.55;6.65;;;;;;;23.30;54.72;97282.09;2073919;28;20235;-59
2023/06/23 11:32:02;;;;;;;11.65;6.95;;;;;;;23.53;53.83;97277.41;2073805;28;20648;-60
2023/06/23 11:33:27;;;;;;;10.10;6.53;;;;;;;24.18;52.74;97281.53;2073623;28;20360;-59
2023/06/23 11:34:30;;;;;;;9.73;6.35;;;;;;;24.50;51.85;97275.09;2074500;28;20316;-59
2023/06/23 11:35:33;;;;;;;15.88;6.93;;;;;;;24.57;51.57;97285.06;2073093;28;20247;-59
2023/06/23 11:36:36;;;;;;;9.82;5.00;;;;;;;24.54;51.28;97279.97;2071269;28;20198;-59
2023/06/23 11:37:40;;;;;;;7.78;5.30;;;;;;;24.70;51.12;97273.28;2069949;28;20213;-59
2023/06/23 11:38:44;;;;;;;10.25;5.88;;;;;;;24.53;51.35;97275.66;2072860;28;20773;-59
2023/06/23 11:39:46;;;;;;;7.25;5.18;;;;;;;24.59;50.95;97276.91;2073977;28;20194;-59
2023/06/23 11:40:49;;;;;;;11.60;6.03;;;;;;;25.14;50.62;97275.44;2074863;28;20202;-59
2023/06/23 11:41:51;;;;;;;7.15;5.78;;;;;;;24.98;49.55;97273.38;2073742;28;20651;-59
2023/06/23 11:42:52;;;;;;;10.00;5.10;;;;;;;24.97;48.67;97267.19;2074241;28;20213;-59
2023/06/23 11:43:59;;;;;;;10.52;5.40;;;;;;;25.43;48.13;97273.56;2075880;28;20210;-59
2023/06/23 11:45:00;;;;;;;8.20;4.68;;;;;;;25.43;48.81;97268.22;2073062;28;20284;-59
2023/06/23 11:46:09;;;;;;;8.50;5.13;;;;;;;24.76;49.56;97270.88;2072048;28;20289;-59
2023/06/23 11:47:10;;;;;;;6.65;5.25;;;;;;;24.38;50.39;97272.56;2088536;28;20202;-59
2023/06/23 11:48:12;;;;;;;10.18;5.72;;;;;;;23.96;51.71;97278.13;2080276;28;20232;-59
2023/06/23 11:49:14;;;;;;;9.93;5.18;;;;;;;23.46;51.24;97276.25;2073340;28;20206;-59
2023/06/23 11:50:15;;;;;;;7.75;5.38;;;;;;;23.50;51.48;97272.34;2074058;28;20583;-59
2023/06/23 11:51:18;;;;;;;7.20;4.50;;;;;;;24.15;51.25;97277.31;2073868;28;20207;-60
2023/06/23 11:52:20;;;;;;;8.60;5.78;;;;;;;24.43;51.30;97278.31;2073461;28;20202;-59
2023/06/23 11:53:22;;;;;;;7.28;5.70;;;;;;;24.93;50.81;97266.63;2072913;28;20671;-59
2023/06/23 11:54:24;;;;;;;9.50;6.32;;;;;;;25.38;50.53;97270.47;2072954;28;20200;-60
2023/06/23 11:55:27;;;;;;;8.73;5.60;;;;;;;25.62;49.85;97270.94;2072434;28;20257;-59
2023/06/23 11:56:28;;;;;;;6.05;5.00;;;;;;;25.62;48.39;97277.13;2072512;28;20205;-60
2023/06/23 11:57:31;;;;;;;11.02;5.47;;;;;;;25.86;47.74;97275.72;2074925;28;20208;-61
2023/06/23 11:58:34;;;;;;;13.77;5.78;;;;;;;26.05;46.93;97270.28;2073393;28;20229;-61
2023/06/23 11:59:36;;;;;;;8.38;5.38;;;;;;;25.83;47.49;97273.38;2074800;28;20201;-60
2023/06/23 12:00:39;;;;;;;9.75;6.05;;;;;;;25.07;49.76;97270.66;2073212;28;20573;-60
2023/06/23 12:01:41;;;;;;;18.02;11.13;;;;;;;25.09;49.67;97279.41;2073721;28;20217;-60
2023/06/23 12:02:49;;;;;;;18.38;12.35;;;;;;;24.90;50.85;97282.09;2071634;28;20201;-60
2023/06/23 12:03:55;;;;;;;11.85;7.32;;;;;;;25.00;50.73;97279.41;2088605;28;20233;-60
2023/06/23 12:04:59;;;;;;;9.15;6.68;;;;;;;25.25;50.34;97280.59;2087479;28;20192;-61
2023/06/23 12:06:01;;;;;;;8.23;5.43;;;;;;;24.74;50.50;97290.69;2073736;28;20684;-60
2023/06/23 12:07:05;;;;;;;8.95;6.05;;;;;;;24.33;50.34;97279.28;2073281;28;20254;-60
2023/06/23 12:08:07;;;;;;;9.38;6.07;;;;;;;24.09;50.12;97283.22;2071428;28;20542;-60
2023/06/23 12:09:09;;;;;;;10.85;5.35;;;;;;;24.69;50.30;97283.09;2074005;28;20216;-60
2023/06/23 12:10:10;;;;;;;7.10;5.30;;;;;;;24.57;50.29;97287.72;2087972;28;20199;-60
2023/06/23 12:11:12;;;;;;;9.13;6.35;;;;;;;24.03;50.89;97284.59;2087370;28;20249;-60
2023/06/23 12:12:14;;;;;;;6.90;5.45;;;;;;;24.38;50.24;97282.38;2073401;28;20203;-60
2023/06/23 12:13:19;;;;;;;8.27;5.00;;;;;;;25.00;49.78;97282.06;2073282;28;20230;-60
2023/06/23 12:14:30;;;;;;;7.80;5.35;;;;;;;25.00;49.07;97279.41;2074479;28;20863;-60
2023/06/23 12:15:35;;;;;;;7.63;5.63;;;;;;;24.65;49.07;97276.38;2073248;28;20208;-60
2023/06/23 12:16:37;;;;;;;9.25;4.80;;;;;;;24.96;49.78;97286.03;2075967;28;20195;-60
2023/06/23 12:17:41;;;;;;;8.50;4.82;;;;;;;25.05;48.93;97282.50;2075063;28;20204;-60
2023/06/23 12:18:44;;;;;;;6.95;5.15;;;;;;;24.96;48.33;97272.69;2074191;28;20208;-60
2023/06/23 12:19:45;;;;;;;5.95;4.30;;;;;;;25.83;47.51;97273.38;2074069;28;20786;-60
2023/06/23 12:20:47;;;;;;;9.45;4.68;;;;;;;26.29;46.93;97270.72;2073009;28;20213;-60
2023/06/23 12:21:48;;;;;;;6.75;4.28;;;;;;;25.94;47.06;97275.84;2070509;28;20206;-60
2023/06/23 12:22:50;;;;;;;8.40;5.53;;;;;;;25.55;47.50;97271.53;2069966;28;20202;-60
2023/06/23 12:23:52;;;;;;;11.27;4.97;;;;;;;26.15;47.11;97280.94;2075216;28;20206;-60
2023/06/23 12:24:54;;;;;;;6.43;3.95;;;;;;;25.87;46.17;97275.56;2073872;28;20194;-60
2023/06/23 12:25:58;;;;;;;7.85;3.88;;;;;;;25.77;46.43;97280.16;2074627;28;20650;-60
2023/06/23 12:26:59;;;;;;;5.38;3.35;;;;;;;25.96;46.87;97273.84;2074166;28;20293;-60